createdAt,value
2023-05-10T00:00:45.165Z,14.67
2023-05-10T00:04:10.308Z,14.62
2023-05-10T00:07:35.467Z,14.59
2023-05-10T00:11:00.653Z,14.56
2023-05-10T00:14:25.777Z,14.51
2023-05-10T00:17:50.959Z,14.48
2023-05-10T00:21:16.057Z,14.5
2023-05-10T00:24:41.189Z,14.53
2023-05-10T00:28:06.327Z,14.57
2023-05-10T00:31:31.475Z,14.56
2023-05-10T00:34:56.648Z,14.53
2023-05-10T00:38:21.795Z,14.52
2023-05-10T00:41:46.925Z,14.52
2023-05-10T00:45:12.064Z,14.51
2023-05-10T00:48:37.197Z,14.49
2023-05-10T00:52:02.368Z,14.45
2023-05-10T00:55:27.458Z,14.43
2023-05-10T00:58:52.646Z,14.4
2023-05-10T01:02:17.822Z,14.41
2023-05-10T01:05:42.920Z,14.4
2023-05-10T01:09:08.094Z,14.38
2023-05-10T01:12:33.222Z,14.4
2023-05-10T01:15:58.375Z,14.41
2023-05-10T01:19:23.482Z,14.44
2023-05-10T01:22:48.609Z,14.47
2023-05-10T01:26:13.772Z,14.48
2023-05-10T01:29:38.922Z,14.47
2023-05-10T01:33:04.086Z,14.49
2023-05-10T01:36:29.217Z,14.46
2023-05-10T01:39:54.360Z,14.45
2023-05-10T01:43:19.542Z,14.46
2023-05-10T01:46:44.766Z,14.49
2023-05-10T01:50:09.863Z,14.52
2023-05-10T01:53:35.010Z,14.55
2023-05-10T01:57:00.162Z,14.57
2023-05-10T02:00:25.299Z,14.55
2023-05-10T02:03:50.524Z,14.51
2023-05-10T02:07:15.658Z,14.51
2023-05-10T02:10:40.836Z,14.54
2023-05-10T02:14:06.009Z,14.52
2023-05-10T02:17:31.218Z,14.48
2023-05-10T02:20:56.334Z,14.46
2023-05-10T02:24:21.446Z,14.46
2023-05-10T02:27:46.590Z,14.45
2023-05-10T02:31:11.740Z,14.46
2023-05-10T02:34:36.896Z,14.47
2023-05-10T02:38:02.002Z,14.48
2023-05-10T02:41:27.129Z,14.5
2023-05-10T02:44:52.338Z,14.48
2023-05-10T02:48:17.493Z,14.48
2023-05-10T02:51:42.682Z,14.45
2023-05-10T02:55:07.845Z,14.45
2023-05-10T02:58:33.010Z,14.44
2023-05-10T03:01:58.194Z,14.44
2023-05-10T03:05:23.338Z,14.4
2023-05-10T03:08:48.546Z,14.38
2023-05-10T03:12:13.656Z,14.36
2023-05-10T03:15:38.832Z,14.32
2023-05-10T03:19:03.987Z,14.3
2023-05-10T03:22:29.116Z,14.31
2023-05-10T03:25:54.603Z,14.3
2023-05-10T03:29:19.705Z,14.27
2023-05-10T03:32:44.969Z,14.24
2023-05-10T03:36:10.130Z,14.2
2023-05-10T03:39:35.338Z,14.2
2023-05-10T03:43:00.578Z,14.2
2023-05-10T03:46:25.834Z,14.23
2023-05-10T03:49:50.997Z,14.26
2023-05-10T03:53:16.137Z,14.29
2023-05-10T03:56:41.293Z,14.33
2023-05-10T04:00:06.427Z,14.38
2023-05-10T04:03:31.697Z,14.42
2023-05-10T04:06:56.698Z,14.45
2023-05-10T04:10:21.818Z,14.45
2023-05-10T04:13:46.963Z,14.41
2023-05-10T04:17:12.121Z,14.35
2023-05-10T04:20:37.210Z,14.28
2023-05-10T04:24:02.341Z,14.24
2023-05-10T04:27:27.483Z,14.2
2023-05-10T04:30:52.670Z,14.19
2023-05-10T04:34:17.780Z,14.24
2023-05-10T04:37:42.892Z,14.28
2023-05-10T04:41:08.002Z,14.36
2023-05-10T04:44:33.141Z,14.41
2023-05-10T04:47:58.377Z,14.44
2023-05-10T04:51:23.470Z,14.47
2023-05-10T04:54:48.601Z,14.51
2023-05-10T04:58:13.735Z,14.53
2023-05-10T05:01:38.893Z,14.53
2023-05-10T05:05:03.988Z,14.5
2023-05-10T05:08:29.194Z,14.51
2023-05-10T05:11:54.277Z,14.56
2023-05-10T05:15:19.411Z,14.6
2023-05-10T05:18:44.540Z,14.61
2023-05-10T05:22:09.676Z,14.62
2023-05-10T05:25:34.844Z,14.63
2023-05-10T05:29:00.139Z,14.64
2023-05-10T05:32:25.305Z,14.66
2023-05-10T05:35:50.420Z,14.65
2023-05-10T05:39:15.569Z,14.62
2023-05-10T05:42:40.729Z,14.59
2023-05-10T05:46:05.898Z,14.6
2023-05-10T05:49:30.963Z,14.62
2023-05-10T05:52:56.113Z,14.6
2023-05-10T05:56:21.246Z,14.59
2023-05-10T05:59:46.400Z,14.57
2023-05-10T06:03:11.589Z,14.51
2023-05-10T06:06:36.616Z,14.44
2023-05-10T06:10:01.799Z,14.34
2023-05-10T06:13:27.012Z,14.32
2023-05-10T06:16:52.074Z,14.3
2023-05-10T06:20:17.145Z,14.29
2023-05-10T06:23:42.279Z,14.25
2023-05-10T06:27:07.409Z,14.27
2023-05-10T06:30:32.521Z,14.28
2023-05-10T06:33:57.667Z,14.31
2023-05-10T06:37:22.825Z,14.35
2023-05-10T06:40:47.956Z,14.38
2023-05-10T06:44:13.075Z,14.4
2023-05-10T06:47:39.124Z,14.41
2023-05-10T06:51:03.383Z,14.42
2023-05-10T06:54:28.508Z,14.42
2023-05-10T06:57:53.638Z,14.43
2023-05-10T07:01:18.885Z,14.41
2023-05-10T07:04:43.970Z,14.38
2023-05-10T07:08:09.098Z,14.37
2023-05-10T07:11:34.264Z,14.28
2023-05-10T07:14:59.401Z,14.24
2023-05-10T07:18:24.567Z,14.25
2023-05-10T07:21:49.676Z,14.32
2023-05-10T07:25:15.063Z,14.4
2023-05-10T07:28:40.058Z,14.47
2023-05-10T07:32:05.207Z,14.55
2023-05-10T07:35:30.300Z,14.61
2023-05-10T07:38:55.440Z,14.64
2023-05-10T07:42:20.719Z,14.67
2023-05-10T07:45:45.751Z,14.73
2023-05-10T07:49:10.884Z,14.76
2023-05-10T07:52:36.026Z,14.77
2023-05-10T07:56:01.181Z,14.81
2023-05-10T07:59:26.334Z,14.87
2023-05-10T08:02:51.481Z,14.88
2023-05-10T08:06:16.586Z,14.91
2023-05-10T08:09:41.733Z,14.96
2023-05-10T08:13:06.863Z,15
2023-05-10T08:16:32.066Z,15.1
2023-05-10T08:19:57.152Z,15.16
2023-05-10T08:23:22.286Z,15.24
2023-05-10T08:26:48.331Z,15.28
2023-05-10T08:30:13.480Z,15.36
2023-05-10T08:33:38.732Z,15.45
2023-05-10T08:37:03.829Z,15.53
2023-05-10T08:40:29.005Z,15.58
2023-05-10T08:43:54.166Z,15.67
2023-05-10T08:47:19.322Z,15.75
2023-05-10T08:50:44.572Z,15.79
2023-05-10T08:54:09.688Z,15.81
2023-05-10T08:57:34.868Z,15.83
2023-05-10T09:01:00.029Z,15.87
2023-05-10T09:04:25.295Z,15.92
2023-05-10T09:07:50.450Z,16.02
2023-05-10T09:11:15.608Z,16.1
2023-05-10T09:14:40.800Z,16.190001
2023-05-10T09:18:06.018Z,16.23
2023-05-10T09:21:31.185Z,16.299999
2023-05-10T09:24:56.425Z,16.379999
2023-05-10T09:28:21.650Z,16.459999
2023-05-10T09:31:46.900Z,16.48
2023-05-10T09:35:12.143Z,16.48
2023-05-10T09:38:37.305Z,16.440001
2023-05-10T09:42:02.523Z,16.48
2023-05-10T09:45:27.731Z,16.52
2023-05-10T09:48:52.911Z,16.620001
2023-05-10T09:52:18.114Z,16.68
2023-05-10T09:55:43.328Z,16.780001
2023-05-10T09:59:08.605Z,16.860001
2023-05-10T10:02:33.855Z,16.950001
2023-05-10T10:05:59.084Z,17.030001
2023-05-10T10:09:24.429Z,17.059999
2023-05-10T10:12:49.658Z,17.129999
2023-05-10T10:16:15.001Z,17.27
2023-05-10T10:19:41.033Z,17.35
2023-05-10T10:23:06.276Z,17.41
2023-05-10T10:26:31.531Z,17.52
2023-05-10T10:29:56.807Z,17.68
2023-05-10T10:33:28.246Z,17.799999
2023-05-10T10:36:47.460Z,17.9
2023-05-10T10:40:37.694Z,18
2023-05-10T10:44:02.848Z,18.110001
2023-05-10T10:47:28.095Z,18.190001
2023-05-10T10:50:53.523Z,18.24
2023-05-10T10:54:18.665Z,18.24
2023-05-10T10:57:43.857Z,18.120001
2023-05-10T11:01:09.038Z,18.02
2023-05-10T11:04:34.187Z,17.9
2023-05-10T11:07:59.343Z,17.76
2023-05-10T11:11:24.518Z,17.65
2023-05-10T11:14:49.724Z,17.530001
2023-05-10T11:18:14.907Z,17.379999
2023-05-10T11:21:40.083Z,17.299999
2023-05-10T11:25:05.262Z,17.299999
2023-05-10T11:28:30.435Z,17.379999
2023-05-10T11:31:55.633Z,17.469999
2023-05-10T11:35:20.775Z,17.549999
2023-05-10T11:38:45.933Z,17.67
2023-05-10T11:42:11.153Z,17.799999
2023-05-10T11:45:36.264Z,17.959999
2023-05-10T11:49:01.397Z,18.08
2023-05-10T11:52:26.547Z,18.17
2023-05-10T11:55:51.719Z,18.290001
2023-05-10T11:59:16.898Z,18.370001
2023-05-10T12:02:42.091Z,18.43
2023-05-10T12:06:07.151Z,18.530001
2023-05-10T12:09:42.989Z,18.629999
2023-05-10T12:12:57.430Z,18.709999
2023-05-10T12:16:22.605Z,18.75
2023-05-10T12:19:47.725Z,18.809999
2023-05-10T12:23:12.903Z,18.85
2023-05-10T12:26:38.122Z,18.860001
2023-05-10T12:30:03.299Z,18.879999
2023-05-10T12:33:28.551Z,18.93
2023-05-10T12:36:53.808Z,19
2023-05-10T12:40:19.177Z,19.01
2023-05-10T12:43:44.237Z,19.040001
2023-05-10T12:47:09.492Z,19.059999
2023-05-10T12:50:34.683Z,19.07
2023-05-10T12:53:59.799Z,19.07
2023-05-10T12:57:24.956Z,19.030001
2023-05-10T13:00:50.160Z,18.959999
2023-05-10T13:04:15.374Z,18.85
2023-05-10T13:07:40.496Z,18.700001
2023-05-10T13:11:05.667Z,18.51
2023-05-10T13:14:30.898Z,18.32
2023-05-10T13:17:56.119Z,18.18
2023-05-10T13:21:21.213Z,18.08
2023-05-10T13:24:46.390Z,18.01
2023-05-10T13:28:11.525Z,17.99
2023-05-10T13:31:36.721Z,17.940001
2023-05-10T13:35:01.898Z,17.9
2023-05-10T13:38:27.062Z,17.780001
2023-05-10T13:41:53.327Z,17.700001
2023-05-10T13:45:17.736Z,17.639999
2023-05-10T13:48:42.614Z,17.6
2023-05-10T13:52:07.799Z,17.5
2023-05-10T13:55:32.985Z,17.450001
2023-05-10T13:58:58.188Z,17.41
2023-05-10T14:02:23.426Z,17.42
2023-05-10T14:05:48.572Z,17.43
2023-05-10T14:09:13.752Z,17.440001
2023-05-10T14:12:38.922Z,17.450001
2023-05-10T14:16:04.223Z,17.469999
2023-05-10T14:19:29.486Z,17.5
2023-05-10T14:22:54.612Z,17.57
2023-05-10T14:26:19.750Z,17.59
2023-05-10T14:29:44.895Z,17.610001
2023-05-10T14:33:10.161Z,17.59
2023-05-10T14:36:35.285Z,17.57
2023-05-10T14:40:00.470Z,17.49
2023-05-10T14:43:25.639Z,17.450001
2023-05-10T14:46:50.849Z,17.4
2023-05-10T14:50:24.911Z,17.370001
2023-05-10T14:53:41.210Z,17.379999
2023-05-10T14:57:06.387Z,17.379999
2023-05-10T15:00:31.597Z,17.290001
2023-05-10T15:03:56.873Z,17.18
2023-05-10T15:07:22.042Z,17.110001
2023-05-10T15:10:47.160Z,17.059999
2023-05-10T15:44:37.062Z,14.48
2023-05-10T15:48:02.249Z,15.38
2023-05-10T15:51:27.347Z,15.57
2023-05-10T15:54:52.510Z,15.77
2023-05-10T15:58:17.681Z,15.89
2023-05-10T16:01:42.884Z,16.01
2023-05-10T16:05:08.092Z,16.120001
2023-05-10T16:08:33.297Z,16.200001
2023-05-10T16:11:58.483Z,16.24
2023-05-10T16:15:23.626Z,16.280001
2023-05-10T16:18:48.882Z,16.34
2023-05-10T16:22:14.055Z,16.379999
2023-05-10T16:25:39.223Z,16.450001
2023-05-10T16:29:04.386Z,16.48
2023-05-10T16:32:29.549Z,16.49
2023-05-10T16:35:54.736Z,16.48
2023-05-10T16:39:19.935Z,16.48
2023-05-10T16:42:45.131Z,16.459999
2023-05-10T16:46:10.310Z,16.42
2023-05-10T16:49:35.492Z,16.42
2023-05-10T16:53:00.678Z,16.459999
2023-05-10T16:56:25.826Z,16.5
2023-05-10T16:59:50.971Z,16.540001
2023-05-10T17:03:16.246Z,16.530001
2023-05-10T17:06:41.307Z,16.51
2023-05-10T17:10:06.586Z,16.5
2023-05-10T17:13:31.791Z,16.51
2023-05-10T17:16:57.044Z,16.530001
2023-05-10T17:20:22.147Z,16.5
2023-05-10T17:23:47.300Z,16.48
2023-05-10T17:27:12.490Z,16.469999
2023-05-10T17:30:37.893Z,16.450001
2023-05-10T17:34:04.798Z,16.41
2023-05-10T17:37:28.242Z,16.41
2023-05-10T17:40:53.440Z,16.4
2023-05-10T17:44:18.633Z,16.370001
2023-05-10T17:47:43.811Z,16.35
2023-05-10T17:51:09.008Z,16.33
2023-05-10T17:54:34.209Z,16.33
2023-05-10T17:57:59.368Z,16.309999
2023-05-10T18:01:24.582Z,16.299999
2023-05-10T18:04:49.747Z,16.290001
2023-05-10T18:08:14.895Z,16.27
2023-05-10T18:11:40.070Z,16.24
2023-05-10T18:15:05.209Z,16.209999
2023-05-10T18:18:30.425Z,16.200001
2023-05-10T18:21:55.524Z,16.200001
2023-05-10T18:25:20.782Z,16.209999
2023-05-10T18:28:45.879Z,16.17
2023-05-10T18:32:11.057Z,16.129999
2023-05-10T18:35:36.229Z,16.1
2023-05-10T18:39:01.331Z,16.08
2023-05-10T18:42:26.491Z,16.07
2023-05-10T18:45:51.629Z,16.08
2023-05-10T18:49:16.778Z,16.08
2023-05-10T18:52:41.942Z,16.08
2023-05-10T18:56:07.035Z,16.1
2023-05-10T18:59:32.214Z,16.09
2023-05-10T19:02:57.385Z,16.049999
2023-05-10T19:06:22.490Z,15.98
2023-05-10T19:09:47.655Z,15.92
2023-05-10T19:13:12.806Z,15.91
2023-05-10T19:16:38.626Z,15.91
2023-05-10T19:20:08.467Z,15.9
2023-05-10T19:23:35.296Z,15.89
2023-05-10T19:27:01.974Z,15.88
2023-05-10T19:30:27.887Z,15.9
2023-05-10T19:33:53.482Z,15.89
2023-05-10T19:37:19.208Z,15.89
2023-05-10T19:40:45.029Z,15.92
2023-05-10T19:44:10.145Z,15.94
2023-05-10T19:47:35.267Z,15.92
2023-05-10T19:51:00.460Z,15.88
2023-05-10T19:54:25.589Z,15.88
2023-05-10T19:57:50.800Z,15.87
2023-05-10T20:01:16.089Z,15.86
2023-05-10T20:04:41.121Z,15.88
2023-05-10T20:08:06.253Z,15.89
2023-05-10T20:11:31.417Z,15.91
2023-05-10T20:14:56.561Z,15.9
2023-05-10T20:18:21.792Z,15.88
2023-05-10T20:21:46.933Z,15.85
2023-05-10T20:25:12.089Z,15.82
2023-05-10T20:28:37.236Z,15.79
2023-05-10T20:32:02.357Z,15.75
2023-05-10T20:35:27.521Z,15.71
2023-05-10T20:38:52.677Z,15.7
2023-05-10T20:42:17.856Z,15.67
2023-05-10T20:45:42.993Z,15.68
2023-05-10T20:49:08.159Z,15.68
2023-05-10T20:52:33.289Z,15.67
2023-05-10T20:55:58.404Z,15.67
2023-05-10T20:59:23.516Z,15.64
2023-05-10T21:02:48.705Z,15.64
2023-05-10T21:06:13.840Z,15.61
2023-05-10T21:09:39.005Z,15.6
2023-05-10T21:13:04.119Z,15.57
2023-05-10T21:16:29.262Z,15.55
2023-05-10T21:19:54.419Z,15.54
2023-05-10T21:23:19.583Z,15.53
2023-05-10T21:26:44.805Z,15.49
2023-05-10T21:30:09.925Z,15.47
2023-05-10T21:33:35.077Z,15.44
2023-05-10T21:37:00.236Z,15.4
2023-05-10T21:40:25.380Z,15.37
2023-05-10T21:43:50.534Z,15.28
2023-05-10T21:47:15.674Z,15.19
2023-05-10T21:50:40.854Z,15.1
2023-05-10T21:54:06.008Z,14.99
2023-05-10T21:57:31.165Z,14.93
2023-05-10T22:00:56.359Z,14.93
2023-05-10T22:04:21.459Z,14.94
2023-05-10T22:07:46.593Z,14.94
2023-05-10T22:11:11.781Z,14.91
2023-05-10T22:14:36.924Z,14.88
2023-05-10T22:18:02.106Z,14.89
2023-05-10T22:21:27.229Z,14.89
2023-05-10T22:24:52.384Z,14.91
2023-05-10T22:28:17.542Z,14.94
2023-05-10T22:31:42.721Z,14.92
2023-05-10T22:35:07.902Z,14.89
2023-05-10T22:38:33.015Z,14.85
2023-05-10T22:41:58.180Z,14.83
2023-05-10T22:45:23.356Z,14.77
2023-05-10T22:48:48.491Z,14.73
2023-05-10T22:52:13.668Z,14.72
2023-05-10T22:55:38.799Z,14.69
2023-05-10T22:59:03.944Z,14.66
2023-05-10T23:02:29.102Z,14.65
2023-05-10T23:05:54.228Z,14.64
2023-05-10T23:09:19.386Z,14.64
2023-05-10T23:12:44.517Z,14.62
2023-05-10T23:16:09.693Z,14.61
2023-05-10T23:19:34.839Z,14.58
2023-05-10T23:23:00.002Z,14.55
2023-05-10T23:26:25.168Z,14.52
2023-05-10T23:29:50.296Z,14.52
2023-05-10T23:33:15.405Z,14.5
2023-05-10T23:36:40.555Z,14.5
2023-05-10T23:40:05.679Z,14.49
2023-05-10T23:43:30.874Z,14.42
2023-05-10T23:46:55.986Z,14.4
2023-05-10T23:50:21.146Z,14.37
2023-05-10T23:53:46.294Z,14.33
2023-05-10T23:57:11.464Z,14.32
